createdAt,value
2022-12-19T00:02:22.260Z,16.43
2022-12-19T00:04:51.104Z,15.97
2022-12-19T00:07:20.083Z,16.13
2022-12-19T00:09:48.780Z,15.27
2022-12-19T00:12:19.269Z,15.27
2022-12-19T00:14:48.751Z,15.83
2022-12-19T00:17:17.505Z,14.20
2022-12-19T00:19:46.180Z,14.90
2022-12-19T00:22:15.011Z,15.43
2022-12-19T00:24:43.752Z,16.23
2022-12-19T00:27:12.340Z,16.03
2022-12-19T00:29:40.926Z,14.73
2022-12-19T00:32:09.694Z,15.70
2022-12-19T00:34:40.056Z,15.37
2022-12-19T00:37:10.754Z,15.23
2022-12-19T00:39:39.472Z,16.03
2022-12-19T00:42:08.142Z,16.40
2022-12-19T00:44:36.829Z,15.43
2022-12-19T00:47:05.562Z,16.00
2022-12-19T00:49:34.258Z,16.40
2022-12-19T00:52:04.021Z,15.87
2022-12-19T00:54:32.849Z,14.40
2022-12-19T00:57:01.915Z,15.43
2022-12-19T00:59:30.894Z,15.07
2022-12-19T01:02:00.086Z,15.53
2022-12-19T01:04:30.310Z,15.97
2022-12-19T01:07:02.508Z,16.83
2022-12-19T01:09:31.317Z,16.33
2022-12-19T01:12:18.321Z,14.60
2022-12-19T01:14:47.078Z,17.40
2022-12-19T01:17:16.109Z,16.43
2022-12-19T01:19:45.012Z,17.77
2022-12-19T01:22:14.551Z,15.87
2022-12-19T01:24:43.216Z,16.10
2022-12-19T01:27:12.109Z,15.13
2022-12-19T01:29:52.128Z,16.57
2022-12-19T01:32:11.362Z,16.27
2022-12-19T01:34:40.054Z,16.37
2022-12-19T01:37:08.660Z,17.47
2022-12-19T01:39:38.241Z,17.20
2022-12-19T01:42:14.720Z,16.53
2022-12-19T01:45:02.930Z,16.47
2022-12-19T01:47:33.504Z,15.83
2022-12-19T01:50:04.068Z,15.87
2022-12-19T01:52:32.833Z,16.77
2022-12-19T01:55:02.075Z,16.47
2022-12-19T01:57:31.210Z,16.90
2022-12-19T02:00:04.137Z,15.60
2022-12-19T02:02:38.908Z,16.50
2022-12-19T02:05:08.281Z,16.17
2022-12-19T02:07:38.488Z,15.87
2022-12-19T02:10:07.874Z,15.33
2022-12-19T02:12:39.543Z,17.00
2022-12-19T02:15:09.768Z,17.37
2022-12-19T02:18:04.254Z,16.37
2022-12-19T02:20:47.474Z,15.37
2022-12-19T02:23:40.706Z,15.03
2022-12-19T02:26:27.218Z,12.67
2022-12-19T02:29:01.803Z,13.97
2022-12-19T02:31:39.346Z,15.80
2022-12-19T02:34:10.971Z,16.07
2022-12-19T02:36:44.443Z,15.97
2022-12-19T02:39:15.634Z,17.63
2022-12-19T02:41:47.507Z,16.20
2022-12-19T02:44:28.071Z,15.07
2022-12-19T02:46:58.831Z,16.53
2022-12-19T02:49:33.339Z,16.27
2022-12-19T02:52:23.223Z,16.47
2022-12-19T02:54:55.190Z,15.37
2022-12-19T02:57:54.238Z,17.00
2022-12-19T03:00:25.872Z,16.67
2022-12-19T03:03:06.250Z,17.03
2022-12-19T03:05:52.794Z,15.83
2022-12-19T03:08:27.661Z,16.90
2022-12-19T03:11:05.055Z,14.93
2022-12-19T03:13:40.103Z,14.90
2022-12-19T03:16:11.544Z,16.00
2022-12-19T03:18:41.100Z,16.30
2022-12-19T03:21:28.200Z,16.17
2022-12-19T03:24:01.586Z,15.57
2022-12-19T03:26:33.217Z,16.27
2022-12-19T03:29:21.017Z,16.27
2022-12-19T03:31:53.931Z,15.90
2022-12-19T03:34:55.595Z,15.60
2022-12-19T03:37:28.102Z,15.60
2022-12-19T03:40:01.683Z,15.97
2022-12-19T03:42:50.948Z,15.80
2022-12-19T03:45:26.280Z,15.20
2022-12-19T03:48:00.756Z,16.27
2022-12-19T03:50:33.966Z,16.17
2022-12-19T03:53:11.189Z,16.40
2022-12-19T03:55:49.089Z,16.07
2022-12-19T03:58:23.686Z,16.83
2022-12-19T04:00:54.848Z,15.70
2022-12-19T04:03:24.539Z,15.90
2022-12-19T04:05:54.990Z,16.23
2022-12-19T04:08:35.512Z,16.87
2022-12-19T04:11:07.087Z,16.80
2022-12-19T04:13:41.401Z,16.13
2022-12-19T04:16:16.009Z,15.83
2022-12-19T04:18:47.679Z,14.97
2022-12-19T04:21:28.034Z,16.57
2022-12-19T04:24:12.811Z,17.63
2022-12-19T04:32:54.367Z,15.93
2022-12-19T04:35:38.393Z,16.13
2022-12-19T04:38:04.532Z,17.23
2022-12-19T04:40:41.771Z,16.87
2022-12-19T04:43:10.559Z,16.70
2022-12-19T04:45:40.645Z,15.67
2022-12-19T04:48:09.751Z,16.10
2022-12-19T04:50:39.926Z,16.33
2022-12-19T04:53:10.704Z,15.67
2022-12-19T04:55:41.251Z,15.77
2022-12-19T04:58:09.919Z,16.00
2022-12-19T05:00:38.591Z,16.43
2022-12-19T05:03:09.095Z,16.60
2022-12-19T05:05:37.755Z,16.50
2022-12-19T05:08:06.673Z,15.43
2022-12-19T05:10:36.948Z,15.73
2022-12-19T05:13:05.707Z,16.63
2022-12-19T05:15:34.267Z,17.07
2022-12-19T05:18:03.387Z,14.67
2022-12-19T05:20:37.683Z,16.53
2022-12-19T05:23:11.382Z,16.97
2022-12-19T05:25:37.603Z,17.03
2022-12-19T05:28:06.368Z,17.67
2022-12-19T05:30:45.606Z,17.90
2022-12-19T05:33:13.673Z,16.60
2022-12-19T05:35:43.024Z,16.97
2022-12-19T05:38:16.012Z,16.70
2022-12-19T05:40:44.712Z,17.17
2022-12-19T05:43:13.462Z,17.07
2022-12-19T05:45:42.268Z,17.33
2022-12-19T05:48:10.916Z,16.80
2022-12-19T05:50:44.923Z,18.93
2022-12-19T05:53:13.954Z,17.87
2022-12-19T05:55:45.980Z,16.90
2022-12-19T05:58:14.636Z,20.03
2022-12-19T06:01:07.873Z,18.87
2022-12-19T06:04:02.767Z,16.87
2022-12-19T06:06:32.483Z,17.10
2022-12-19T06:09:05.516Z,18.03
2022-12-19T06:11:41.225Z,18.47
2022-12-19T06:14:18.777Z,17.60
2022-12-19T06:16:47.770Z,18.47
2022-12-19T06:19:16.436Z,17.70
2022-12-19T06:21:48.537Z,18.17
2022-12-19T06:24:17.867Z,17.00
2022-12-19T06:26:55.332Z,17.67
2022-12-19T06:29:26.665Z,15.67
2022-12-19T06:31:55.806Z,15.87
2022-12-19T06:34:55.070Z,16.93
2022-12-19T06:36:54.844Z,16.23
2022-12-19T06:39:23.475Z,15.37
2022-12-19T06:42:11.233Z,15.27
2022-12-19T06:44:40.105Z,17.87
2022-12-19T06:47:08.733Z,20.57
2022-12-19T06:49:37.384Z,16.43
2022-12-19T06:52:09.128Z,15.97
2022-12-19T06:54:36.634Z,16.67
2022-12-19T06:57:05.240Z,16.50
2022-12-19T06:59:34.491Z,17.40
2022-12-19T07:02:21.329Z,18.50
2022-12-19T07:04:55.665Z,17.43
2022-12-19T07:07:24.331Z,18.23
2022-12-19T07:09:53.109Z,18.53
2022-12-19T07:12:25.404Z,18.10
2022-12-19T07:14:55.854Z,17.77
2022-12-19T07:17:26.742Z,18.57
2022-12-19T07:19:58.410Z,18.97
2022-12-19T07:22:29.949Z,18.23
2022-12-19T07:24:59.830Z,20.60
2022-12-19T07:27:35.476Z,21.80
2022-12-19T07:29:59.943Z,20.83
2022-12-19T07:32:33.206Z,19.40
2022-12-19T07:35:02.705Z,19.47
2022-12-19T07:37:32.585Z,19.63
2022-12-19T07:40:01.604Z,19.83
2022-12-19T07:42:32.861Z,21.20
2022-12-19T07:45:01.671Z,21.27
2022-12-19T07:47:36.565Z,22.60
2022-12-19T07:50:05.612Z,23.77
2022-12-19T07:52:34.273Z,25.80
2022-12-19T07:55:02.841Z,26.17
2022-12-19T07:57:32.961Z,26.73
2022-12-19T08:00:01.785Z,27.97
2022-12-19T08:02:33.904Z,29.37
2022-12-19T08:05:08.802Z,25.77
2022-12-19T08:07:37.979Z,27.00
2022-12-19T08:10:07.411Z,25.90
2022-12-19T08:15:56.031Z,25.70
2022-12-19T08:18:29.757Z,26.67
2022-12-19T08:24:01.224Z,27.93
2022-12-19T08:26:35.735Z,30.00
2022-12-19T08:29:13.276Z,28.60
2022-12-19T08:34:58.013Z,29.00
2022-12-19T08:37:32.079Z,27.23
2022-12-19T08:40:18.672Z,25.10
2022-12-19T08:42:47.732Z,25.23
2022-12-19T08:45:22.493Z,25.30
2022-12-19T08:47:58.913Z,24.30
2022-12-19T08:50:36.534Z,24.40
2022-12-19T08:53:05.367Z,24.73
2022-12-19T08:55:35.781Z,24.37
2022-12-19T08:58:19.581Z,25.37
2022-12-19T09:00:55.525Z,26.17
2022-12-19T09:03:50.057Z,28.60
2022-12-19T09:06:10.477Z,27.63
2022-12-19T09:08:37.974Z,27.03
2022-12-19T09:11:12.218Z,27.37
2022-12-19T09:13:42.503Z,28.10
2022-12-19T09:16:14.473Z,24.43
2022-12-19T09:18:48.784Z,24.33
2022-12-19T09:21:17.234Z,23.07
2022-12-19T09:23:54.534Z,23.77
2022-12-19T09:26:24.772Z,23.33
2022-12-19T09:28:55.203Z,23.23
2022-12-19T09:31:26.212Z,24.00
2022-12-19T09:33:54.918Z,24.00
2022-12-19T09:36:26.011Z,22.87
2022-12-19T09:38:56.744Z,22.50
2022-12-19T09:41:54.697Z,22.63
2022-12-19T09:44:47.372Z,22.47
2022-12-19T09:47:21.834Z,22.67
2022-12-19T09:49:54.224Z,21.30
2022-12-19T09:52:41.167Z,19.87
2022-12-19T09:55:30.824Z,22.23
2022-12-19T09:58:26.837Z,20.40
2022-12-19T10:01:00.106Z,20.13
2022-12-19T10:03:43.644Z,19.83
2022-12-19T10:07:11.271Z,19.93
2022-12-19T10:09:20.583Z,20.67
2022-12-19T10:12:38.936Z,19.67
2022-12-19T10:14:27.429Z,18.03
2022-12-19T10:17:35.707Z,18.17
2022-12-19T10:20:19.549Z,18.93
2022-12-19T10:23:17.929Z,19.37
2022-12-19T10:26:06.184Z,20.20
2022-12-19T10:29:00.167Z,21.10
2022-12-19T10:31:53.838Z,20.80
2022-12-19T10:34:25.424Z,21.40
2022-12-19T10:37:26.881Z,22.83
2022-12-19T10:39:45.458Z,20.90
2022-12-19T10:42:29.597Z,22.10
2022-12-19T10:45:01.147Z,19.10
2022-12-19T10:47:31.021Z,20.90
2022-12-19T10:50:05.469Z,20.40
2022-12-19T10:52:52.667Z,20.80
2022-12-19T10:55:26.906Z,19.47
2022-12-19T10:58:00.743Z,19.77
2022-12-19T11:00:36.617Z,20.00
2022-12-19T11:03:20.386Z,19.87
2022-12-19T11:05:58.402Z,19.40
2022-12-19T11:08:29.983Z,19.10
2022-12-19T11:14:37.240Z,19.90
2022-12-19T11:19:28.584Z,19.97
2022-12-19T11:21:01.945Z,20.33
2022-12-19T11:29:19.208Z,18.37
2022-12-19T11:29:45.634Z,15.70
2022-12-19T11:30:06.171Z,19.17
2022-12-19T11:30:42.984Z,15.67
2022-12-19T11:32:41.481Z,15.50
2022-12-19T11:35:09.749Z,15.53
2022-12-19T11:37:44.377Z,14.80
2022-12-19T11:40:28.072Z,15.67
2022-12-19T11:43:43.145Z,15.37
2022-12-19T11:45:44.300Z,15.40
2022-12-19T11:48:15.948Z,15.37
2022-12-19T11:51:17.624Z,16.33
2022-12-19T11:54:04.057Z,14.43
2022-12-19T11:56:34.219Z,14.27
2022-12-19T11:59:05.994Z,14.27
2022-12-19T12:02:00.061Z,15.10
2022-12-19T12:16:55.023Z,12.90
2022-12-19T12:24:15.039Z,14.90
2022-12-19T12:31:09.793Z,13.53
2022-12-19T12:31:20.598Z,14.07
2022-12-19T12:31:50.627Z,12.67
2022-12-19T12:31:51.872Z,13.57
2022-12-19T12:35:38.053Z,13.77
2022-12-19T12:35:51.826Z,14.57
2022-12-19T12:38:14.584Z,14.40
2022-12-19T12:40:26.476Z,13.50
2022-12-19T12:43:00.905Z,14.60
2022-12-19T12:45:39.742Z,19.57
2022-12-19T12:48:28.292Z,17.93
2022-12-19T12:51:00.551Z,14.57
2022-12-19T12:53:45.125Z,14.10
2022-12-19T12:56:16.330Z,14.00
2022-12-19T12:58:48.787Z,14.77
2022-12-19T13:01:31.284Z,14.30
2022-12-19T13:04:15.131Z,13.70
2022-12-19T13:06:52.652Z,13.33
2022-12-19T13:09:35.306Z,13.67
2022-12-19T13:12:43.114Z,12.23
2022-12-19T13:15:20.833Z,11.67
2022-12-19T13:17:55.158Z,11.63
2022-12-19T13:20:29.872Z,11.30
2022-12-19T13:23:07.801Z,12.20
2022-12-19T13:25:40.294Z,12.53
2022-12-19T13:28:17.732Z,12.10
2022-12-19T13:31:18.690Z,11.27
2022-12-19T13:33:55.753Z,11.63
2022-12-19T13:39:51.442Z,12.60
2022-12-19T13:39:54.510Z,10.77
2022-12-19T13:42:34.558Z,10.20
2022-12-19T13:45:12.009Z,12.00
2022-12-19T13:47:44.220Z,10.67
2022-12-19T13:50:18.604Z,11.20
2022-12-19T13:52:52.536Z,11.73
2022-12-19T13:55:22.018Z,11.53
2022-12-19T13:57:55.735Z,11.60
2022-12-19T14:00:33.129Z,12.83
2022-12-19T14:03:04.984Z,12.97
2022-12-19T14:06:16.939Z,12.57
2022-12-19T14:08:12.889Z,11.60
2022-12-19T14:11:34.278Z,11.40
2022-12-19T14:13:57.570Z,11.40
2022-12-19T14:16:19.537Z,11.27
2022-12-19T14:18:51.397Z,12.70
2022-12-19T14:22:10.701Z,12.23
2022-12-19T14:24:32.834Z,12.03
2022-12-19T14:28:18.862Z,10.83
2022-12-19T14:30:30.270Z,11.77
2022-12-19T14:33:40.325Z,11.63
2022-12-19T14:36:06.655Z,12.33
2022-12-19T14:39:21.048Z,12.87
2022-12-19T14:40:26.212Z,12.87
2022-12-19T14:43:56.293Z,13.10
2022-12-19T14:52:02.642Z,11.23
2022-12-19T14:54:09.345Z,11.27
2022-12-19T14:54:30.491Z,12.43
2022-12-19T14:57:04.587Z,16.33
2022-12-19T14:59:46.277Z,14.40
2022-12-19T15:05:12.550Z,12.37
2022-12-19T15:07:51.930Z,11.77
2022-12-19T15:11:00.712Z,11.03
2022-12-19T15:14:54.989Z,11.00
2022-12-19T15:15:56.830Z,11.27
2022-12-19T15:18:46.261Z,11.50
2022-12-19T15:21:16.249Z,13.07
2022-12-19T15:23:50.741Z,12.43
2022-12-19T15:26:48.664Z,12.57
2022-12-19T15:29:15.376Z,14.27
2022-12-19T15:31:47.704Z,16.57
2022-12-19T15:34:36.820Z,18.10
2022-12-19T15:37:02.443Z,18.47
2022-12-19T15:39:31.106Z,19.43
2022-12-19T15:42:01.278Z,18.77
2022-12-19T15:44:38.876Z,18.77
2022-12-19T15:47:10.910Z,20.60
2022-12-19T15:49:39.812Z,20.43
2022-12-19T15:52:24.081Z,25.23
2022-12-19T15:54:52.749Z,23.30
2022-12-19T15:57:27.112Z,19.70
2022-12-19T15:59:57.849Z,18.87
2022-12-19T16:02:49.401Z,21.47
2022-12-19T16:05:03.901Z,18.93
2022-12-19T16:07:28.852Z,18.17
2022-12-19T16:09:58.286Z,19.23
2022-12-19T16:12:31.728Z,17.67
2022-12-19T16:15:04.635Z,17.70
2022-12-19T16:17:34.422Z,22.77
2022-12-19T16:20:05.960Z,21.13
2022-12-19T16:22:34.635Z,26.07
2022-12-19T16:25:05.369Z,19.20
2022-12-19T16:27:41.152Z,19.37
2022-12-19T16:30:22.196Z,19.17
2022-12-19T16:32:51.317Z,18.60
2022-12-19T16:35:40.202Z,19.33
2022-12-19T16:37:54.825Z,19.67
2022-12-19T16:40:26.989Z,18.80
2022-12-19T16:43:01.640Z,19.80
2022-12-19T16:45:32.024Z,21.40
2022-12-19T16:48:01.020Z,18.87
2022-12-19T16:50:35.206Z,19.67
2022-12-19T16:53:04.200Z,19.37
2022-12-19T16:55:34.703Z,19.40
2022-12-19T16:58:03.844Z,18.03
2022-12-19T17:00:33.327Z,18.07
2022-12-19T17:03:08.194Z,17.50
2022-12-19T17:05:37.945Z,20.00
2022-12-19T17:08:10.929Z,19.37
2022-12-19T17:10:42.035Z,19.17
2022-12-19T17:13:17.865Z,19.03
2022-12-19T17:15:52.589Z,17.90
2022-12-19T17:18:23.406Z,18.20
2022-12-19T17:20:52.076Z,19.30
2022-12-19T17:23:30.190Z,18.30
2022-12-19T17:26:00.408Z,18.07
2022-12-19T17:28:30.229Z,19.13
2022-12-19T17:31:02.144Z,17.63
2022-12-19T17:33:33.927Z,19.53
2022-12-19T17:36:05.411Z,21.00
2022-12-19T17:38:36.098Z,17.87
2022-12-19T17:43:57.218Z,17.87
2022-12-19T17:46:26.714Z,17.83
2022-12-19T17:48:55.543Z,18.27
2022-12-19T17:51:24.914Z,18.20
2022-12-19T17:53:53.623Z,18.10
2022-12-19T17:56:22.763Z,18.03
2022-12-19T17:58:51.880Z,17.37
2022-12-19T18:01:27.130Z,16.63
2022-12-19T18:04:00.640Z,16.10
2022-12-19T18:06:29.075Z,15.40
2022-12-19T18:08:57.729Z,32.63
2022-12-19T18:11:38.394Z,15.03
2022-12-19T18:14:03.924Z,14.77
2022-12-19T18:16:33.936Z,13.60
2022-12-19T18:19:02.632Z,16.23
2022-12-19T18:21:31.328Z,13.07
2022-12-19T18:24:00.166Z,12.80
2022-12-19T18:26:29.669Z,11.63
2022-12-19T18:28:58.322Z,11.33
2022-12-19T18:31:27.638Z,11.47
2022-12-19T18:34:07.035Z,12.00
2022-12-19T18:36:41.527Z,10.97
2022-12-19T18:39:25.056Z,10.67
2022-12-19T18:41:54.848Z,11.67
2022-12-19T18:44:23.698Z,11.17
2022-12-19T18:46:53.286Z,11.77
2022-12-19T18:49:23.007Z,10.17
2022-12-19T18:51:51.820Z,10.53
2022-12-19T18:54:22.695Z,10.90
2022-12-19T18:56:52.076Z,11.30
2022-12-19T18:59:20.818Z,11.30
2022-12-19T19:01:50.952Z,10.63
2022-12-19T19:04:19.783Z,10.17
2022-12-19T19:06:52.432Z,10.00
2022-12-19T19:09:22.752Z,10.63
2022-12-19T19:11:51.522Z,11.73
2022-12-19T19:14:20.093Z,10.20
2022-12-19T19:16:48.848Z,15.20
2022-12-19T19:19:19.360Z,10.47
2022-12-19T19:21:48.131Z,10.20
2022-12-19T19:24:25.012Z,9.53
2022-12-19T19:27:01.372Z,9.80
2022-12-19T19:29:59.323Z,14.43
2022-12-19T19:32:17.912Z,13.17
2022-12-19T19:34:47.066Z,10.40
2022-12-19T19:37:17.560Z,14.20
2022-12-19T19:39:48.852Z,18.73
2022-12-19T19:45:47.673Z,28.97
2022-12-19T19:48:36.298Z,11.37
2022-12-19T19:51:03.095Z,18.67
2022-12-19T19:53:36.289Z,14.77
2022-12-19T19:56:05.585Z,8.27
2022-12-19T20:08:09.309Z,6.60
2022-12-19T20:10:49.022Z,7.30
2022-12-19T20:13:24.237Z,6.43
2022-12-19T20:19:20.296Z,6.50
2022-12-19T20:22:03.546Z,6.53
2022-12-19T20:24:32.817Z,6.97
2022-12-19T20:27:21.328Z,6.27
2022-12-19T20:29:51.988Z,6.27
2022-12-19T20:32:29.638Z,6.03
2022-12-19T20:35:01.355Z,6.77
2022-12-19T20:37:30.090Z,5.67
2022-12-19T20:39:59.360Z,6.63
2022-12-19T20:42:28.654Z,5.87
2022-12-19T20:45:03.270Z,6.37
2022-12-19T20:47:42.482Z,5.77
2022-12-19T20:50:17.895Z,6.00
2022-12-19T20:52:52.259Z,6.60
2022-12-19T20:55:25.629Z,6.83
2022-12-19T20:57:56.702Z,7.07
2022-12-19T21:00:38.924Z,6.57
2022-12-19T21:05:42.603Z,6.40
2022-12-19T21:08:16.157Z,6.60
2022-12-19T21:10:46.618Z,6.43
2022-12-19T21:13:16.227Z,6.33
2022-12-19T21:16:01.182Z,7.13
2022-12-19T21:18:32.236Z,6.33
2022-12-19T21:21:05.525Z,6.93
2022-12-19T21:23:35.068Z,6.17
2022-12-19T21:26:13.063Z,7.33
2022-12-19T21:28:45.371Z,7.07
2022-12-19T21:31:34.824Z,7.20
2022-12-19T21:34:04.391Z,7.37
2022-12-19T21:36:33.680Z,6.60
2022-12-19T21:39:03.202Z,6.53
2022-12-19T21:41:33.301Z,7.30
2022-12-19T21:44:03.931Z,7.20
2022-12-19T21:46:35.867Z,7.30
2022-12-19T21:49:04.892Z,7.07
2022-12-19T21:51:36.882Z,7.70
2022-12-19T21:54:09.358Z,8.27
2022-12-19T21:56:40.589Z,8.13
2022-12-19T21:59:15.563Z,8.07
2022-12-19T22:01:46.619Z,7.40
2022-12-19T22:04:25.336Z,7.47
2022-12-19T22:06:56.547Z,8.30
2022-12-19T22:09:25.534Z,8.67
2022-12-19T22:11:55.156Z,8.00
2022-12-19T22:14:28.027Z,8.33
2022-12-19T22:16:57.210Z,9.17
2022-12-19T22:19:27.683Z,8.83
2022-12-19T22:22:25.484Z,8.27
2022-12-19T22:24:56.177Z,8.70
2022-12-19T22:27:25.220Z,9.37
2022-12-19T22:30:10.561Z,11.00
2022-12-19T22:42:09.061Z,9.90
2022-12-19T22:44:28.093Z,9.77
2022-12-19T22:47:07.707Z,9.90
2022-12-19T22:49:44.033Z,11.03
2022-12-19T22:55:31.874Z,12.23
2022-12-19T22:58:14.905Z,11.93
2022-12-19T23:00:55.697Z,10.87
2022-12-19T23:03:30.425Z,12.10
2022-12-19T23:06:01.682Z,11.17
2022-12-19T23:08:31.072Z,10.77
2022-12-19T23:11:09.735Z,12.53
2022-12-19T23:13:42.937Z,11.87
2022-12-19T23:16:16.789Z,12.43
2022-12-19T23:18:45.668Z,11.53
2022-12-19T23:21:20.312Z,12.73
2022-12-19T23:23:51.453Z,12.27
2022-12-19T23:26:29.399Z,11.53
2022-12-19T23:29:04.023Z,12.43
2022-12-19T23:31:33.708Z,12.13
2022-12-19T23:34:03.240Z,13.53
2022-12-19T23:37:09.119Z,12.33
2022-12-19T23:39:02.519Z,11.50
2022-12-19T23:41:31.137Z,12.20
2022-12-19T23:43:59.835Z,11.53
2022-12-19T23:46:29.650Z,11.17
2022-12-19T23:48:58.432Z,11.37
2022-12-19T23:51:28.522Z,12.03
2022-12-19T23:53:57.863Z,12.23
2022-12-19T23:56:31.951Z,11.10
2022-12-19T23:59:01.545Z,11.60
